createdAt,value
2022-10-11T00:00:41.254Z,77.39
2022-10-11T00:03:08.156Z,77.49
2022-10-11T00:05:35.388Z,77.65
2022-10-11T00:08:02.309Z,77.55
2022-10-11T00:10:29.211Z,77.49
2022-10-11T00:12:56.106Z,77.76
2022-10-11T00:15:23.249Z,77.88
2022-10-11T00:17:52.792Z,77.68
2022-10-11T00:20:19.740Z,77.70
2022-10-11T00:22:47.778Z,77.67
2022-10-11T00:25:14.705Z,77.49
2022-10-11T00:27:41.586Z,77.63
2022-10-11T00:30:09.505Z,77.57
2022-10-11T00:32:37.300Z,77.53
2022-10-11T00:35:06.499Z,77.53
2022-10-11T00:37:37.664Z,77.50
2022-10-11T00:40:07.253Z,77.78
2022-10-11T00:42:34.122Z,77.79
2022-10-11T00:45:31.883Z,77.77
2022-10-11T00:48:21.479Z,77.68
2022-10-11T00:50:48.354Z,77.89
2022-10-11T00:53:15.443Z,77.96
2022-10-11T00:55:47.433Z,77.89
2022-10-11T00:58:14.296Z,77.97
2022-10-11T01:00:41.205Z,77.76
2022-10-11T01:03:10.173Z,78.11
2022-10-11T01:05:38.139Z,77.89
2022-10-11T01:08:05.060Z,77.84
2022-10-11T01:10:32.060Z,78.06
2022-10-11T01:13:27.480Z,78.08
2022-10-11T01:16:12.345Z,77.97
2022-10-11T01:18:52.500Z,78.06
2022-10-11T01:21:34.295Z,78.05
2022-10-11T01:24:23.484Z,78.08
2022-10-11T01:27:34.622Z,77.74
2022-10-11T01:30:36.631Z,77.74
2022-10-11T01:33:21.316Z,77.53
2022-10-11T01:36:27.736Z,77.72
2022-10-11T01:39:03.631Z,77.93
2022-10-11T01:41:47.669Z,77.47
2022-10-11T01:44:14.555Z,77.69
2022-10-11T01:46:41.716Z,77.86
2022-10-11T01:49:08.947Z,77.97
2022-10-11T01:51:53.211Z,77.75
2022-10-11T01:55:08.144Z,78.06
2022-10-11T01:58:05.782Z,78.08
2022-10-11T02:00:47.858Z,78.21
2022-10-11T02:03:51.149Z,78.05
2022-10-11T02:06:24.059Z,78.12
2022-10-11T02:09:08.257Z,78.11
2022-10-11T02:11:35.715Z,78.39
2022-10-11T02:14:23.195Z,77.90
2022-10-11T02:16:53.672Z,78.18
2022-10-11T02:19:22.477Z,78.15
2022-10-11T02:21:52.914Z,78.05
2022-10-11T02:24:27.302Z,78.29
2022-10-11T02:26:54.767Z,78.40
2022-10-11T02:29:22.997Z,78.17
2022-10-11T02:31:52.803Z,78.31
2022-10-11T02:34:56.162Z,78.43
2022-10-11T02:37:40.636Z,78.39
2022-10-11T02:40:16.857Z,78.49
2022-10-11T02:42:53.294Z,78.35
2022-10-11T02:45:23.716Z,78.18
2022-10-11T02:47:53.325Z,78.37
2022-10-11T02:50:21.767Z,78.56
2022-10-11T02:52:51.158Z,78.51
2022-10-11T02:55:18.048Z,78.39
2022-10-11T02:57:44.961Z,78.27
2022-10-11T03:00:12.491Z,78.36
2022-10-11T03:02:39.347Z,78.31
2022-10-11T03:05:06.373Z,78.27
2022-10-11T03:07:33.481Z,78.29
2022-10-11T03:10:00.346Z,78.48
2022-10-11T03:12:27.237Z,78.36
2022-10-11T03:14:54.112Z,78.17
2022-10-11T03:17:37.292Z,78.67
2022-10-11T03:20:05.882Z,78.67
2022-10-11T03:22:32.796Z,78.53
2022-10-11T03:25:03.574Z,78.70
2022-10-11T03:27:31.489Z,78.71
2022-10-11T03:29:58.747Z,78.56
2022-10-11T03:32:25.622Z,78.51
2022-10-11T03:34:52.562Z,78.26
2022-10-11T03:37:21.992Z,78.66
2022-10-11T03:39:48.916Z,78.53
2022-10-11T03:42:15.833Z,78.41
2022-10-11T03:44:42.779Z,78.61
2022-10-11T03:47:09.800Z,78.42
2022-10-11T03:49:39.983Z,78.33
2022-10-11T03:52:10.326Z,78.41
2022-10-11T03:54:37.215Z,78.31
2022-10-11T03:57:04.239Z,78.59
2022-10-11T03:59:31.129Z,78.70
2022-10-11T04:01:58.013Z,78.56
2022-10-11T04:04:25.015Z,78.68
2022-10-11T04:06:51.903Z,78.72
2022-10-11T04:09:18.803Z,78.57
2022-10-11T04:11:45.669Z,78.21
2022-10-11T04:14:12.548Z,78.67
2022-10-11T04:16:40.210Z,78.55
2022-10-11T04:19:07.152Z,78.57
2022-10-11T04:21:34.077Z,78.76
2022-10-11T04:24:00.945Z,78.63
2022-10-11T04:26:27.827Z,78.57
2022-10-11T04:28:54.789Z,78.54
2022-10-11T04:31:21.717Z,78.63
2022-10-11T04:33:50.849Z,78.63
2022-10-11T04:36:24.005Z,78.71
2022-10-11T04:38:56.250Z,78.77
2022-10-11T04:41:23.179Z,78.54
2022-10-11T04:43:52.610Z,78.37
2022-10-11T04:46:22.573Z,78.66
2022-10-11T04:48:54.591Z,78.70
2022-10-11T04:51:21.848Z,78.52
2022-10-11T04:53:49.517Z,78.32
2022-10-11T04:56:18.445Z,78.73
2022-10-11T04:58:47.936Z,78.84
2022-10-11T05:01:23.150Z,78.82
2022-10-11T05:03:53.051Z,78.79
2022-10-11T05:06:22.612Z,78.89
2022-10-11T05:08:52.172Z,78.77
2022-10-11T05:11:20.547Z,78.93
2022-10-11T05:13:47.610Z,78.85
2022-10-11T05:16:15.024Z,78.67
2022-10-11T05:18:42.443Z,79.14
2022-10-11T05:21:23.635Z,78.89
2022-10-11T05:23:51.203Z,78.99
2022-10-11T05:26:21.129Z,78.87
2022-10-11T05:28:53.429Z,79.08
2022-10-11T05:31:22.689Z,79.00
2022-10-11T05:33:52.433Z,78.86
2022-10-11T05:36:21.895Z,78.95
2022-10-11T05:38:48.856Z,79.16
2022-10-11T05:41:16.099Z,79.08
2022-10-11T05:43:44.569Z,79.12
2022-10-11T05:46:12.263Z,79.08
2022-10-11T05:48:39.613Z,79.11
2022-10-11T05:51:07.739Z,79.01
2022-10-11T05:53:34.748Z,79.13
2022-10-11T05:56:02.035Z,78.91
2022-10-11T05:58:29.147Z,78.92
2022-10-11T06:00:57.138Z,78.80
2022-10-11T06:03:25.419Z,78.74
2022-10-11T06:05:56.746Z,79.08
2022-10-11T06:08:24.240Z,79.02
2022-10-11T06:10:51.156Z,78.93
2022-10-11T06:13:20.056Z,78.92
2022-10-11T06:15:46.963Z,79.07
2022-10-11T06:18:14.430Z,79.24
2022-10-11T06:20:41.576Z,79.20
2022-10-11T06:23:08.663Z,79.26
2022-10-11T06:25:35.571Z,79.09
2022-10-11T06:28:03.187Z,79.14
2022-10-11T06:30:30.248Z,79.10
2022-10-11T06:33:00.039Z,79.24
2022-10-11T06:35:30.992Z,79.37
2022-10-11T06:37:57.927Z,79.48
2022-10-11T06:40:24.901Z,79.54
2022-10-11T06:42:52.042Z,79.32
2022-10-11T06:45:18.939Z,79.54
2022-10-11T06:47:46.003Z,79.51
2022-10-11T06:50:13.821Z,79.32
2022-10-11T06:52:40.887Z,79.59
2022-10-11T06:55:08.117Z,79.64
2022-10-11T06:57:35.123Z,79.37
2022-10-11T07:00:02.085Z,79.50
2022-10-11T07:02:28.989Z,79.55
2022-10-11T07:04:55.971Z,79.60
2022-10-11T07:07:22.923Z,79.70
2022-10-11T07:09:52.343Z,79.73
2022-10-11T07:12:21.865Z,79.77
2022-10-11T07:14:51.479Z,79.59
2022-10-11T07:17:19.819Z,79.51
2022-10-11T07:19:49.885Z,79.57
2022-10-11T07:22:16.933Z,79.76
2022-10-11T07:24:43.890Z,79.74
2022-10-11T07:27:10.828Z,79.65
2022-10-11T07:29:37.726Z,79.94
2022-10-11T07:32:04.748Z,79.65
2022-10-11T07:34:31.621Z,79.85
2022-10-11T07:36:58.547Z,79.78
2022-10-11T07:39:25.427Z,79.87
2022-10-11T07:41:52.324Z,80.14
2022-10-11T07:44:22.094Z,80.19
2022-10-11T07:46:48.957Z,80.17
2022-10-11T07:49:15.852Z,79.92
2022-10-11T07:51:42.713Z,80.07
2022-10-11T07:54:09.594Z,80.27
2022-10-11T07:56:37.615Z,80.26
2022-10-11T07:59:29.483Z,80.33
2022-10-11T08:01:56.429Z,80.46
2022-10-11T08:04:23.409Z,80.53
2022-10-11T08:06:53.622Z,80.60
2022-10-11T08:09:23.617Z,80.42
2022-10-11T08:11:53.125Z,80.69
2022-10-11T08:14:22.937Z,80.50
2022-10-11T08:16:52.031Z,80.71
2022-10-11T08:19:19.007Z,80.64
2022-10-11T08:21:45.887Z,80.72
2022-10-11T08:24:18.799Z,80.74
2022-10-11T08:26:45.686Z,80.65
2022-10-11T08:29:13.342Z,80.75
2022-10-11T08:31:40.360Z,80.53
2022-10-11T08:34:07.243Z,80.70
2022-10-11T08:36:34.207Z,80.59
2022-10-11T08:39:01.201Z,80.79
2022-10-11T08:42:17.490Z,80.61
2022-10-11T08:45:09.992Z,80.48
2022-10-11T08:47:41.270Z,80.43
2022-10-11T08:50:16.758Z,80.58
2022-10-11T08:52:48.978Z,80.35
2022-10-11T08:55:33.725Z,80.22
2022-10-11T08:58:01.367Z,80.13
2022-10-11T09:00:31.097Z,79.99
2022-10-11T09:03:22.107Z,79.77
2022-10-11T09:06:04.305Z,79.50
2022-10-11T09:08:43.433Z,79.23
2022-10-11T09:11:31.532Z,78.94
2022-10-11T09:14:22.502Z,78.69
2022-10-11T09:17:14.636Z,78.71
2022-10-11T09:20:24.552Z,78.43
2022-10-11T09:23:04.157Z,78.70
2022-10-11T09:25:35.672Z,77.97
2022-10-11T09:28:13.464Z,78.42
2022-10-11T09:30:45.148Z,78.10
2022-10-11T09:33:23.447Z,78.08
2022-10-11T09:35:52.327Z,78.01
2022-10-11T09:38:24.888Z,77.89
2022-10-11T09:41:20.921Z,77.70
2022-10-11T09:43:53.980Z,77.30
2022-10-11T09:46:27.747Z,77.04
2022-10-11T09:48:54.688Z,77.03
2022-10-11T09:51:23.401Z,77.25
2022-10-11T09:54:02.167Z,77.14
2022-10-11T09:56:30.962Z,77.05
2022-10-11T09:59:32.380Z,76.75
2022-10-11T10:02:14.624Z,76.45
2022-10-11T10:04:53.459Z,76.72
2022-10-11T10:07:23.350Z,76.50
2022-10-11T10:09:53.312Z,76.37
2022-10-11T10:12:24.960Z,76.55
2022-10-11T10:15:08.565Z,76.51
2022-10-11T10:17:35.930Z,76.50
2022-10-11T10:20:05.653Z,76.74
2022-10-11T10:22:34.339Z,76.46
2022-10-11T10:25:08.102Z,76.30
2022-10-11T10:27:35.039Z,76.11
2022-10-11T10:30:13.353Z,75.78
2022-10-11T10:32:56.330Z,75.67
2022-10-11T10:35:27.597Z,75.50
2022-10-11T10:38:00.569Z,75.25
2022-10-11T10:40:37.992Z,74.36
2022-10-11T10:43:04.864Z,74.50
2022-10-11T10:45:58.193Z,73.94
2022-10-11T10:51:53.029Z,73.60
2022-10-11T10:54:28.392Z,74.20
2022-10-11T10:57:03.762Z,73.68
2022-10-11T10:59:39.560Z,73.45
2022-10-11T11:02:39.032Z,72.96
2022-10-11T11:05:04.969Z,72.94
2022-10-11T11:07:42.143Z,72.70
2022-10-11T11:10:13.628Z,72.63
2022-10-11T11:13:19.097Z,72.08
2022-10-11T11:15:52.322Z,72.23
2022-10-11T11:18:31.669Z,71.64
2022-10-11T11:21:41.402Z,71.29
2022-10-11T11:24:22.921Z,71.45
2022-10-11T11:26:59.160Z,71.13
2022-10-11T11:29:43.623Z,71.02
2022-10-11T11:32:30.111Z,70.82
2022-10-11T11:35:26.693Z,70.34
2022-10-11T11:38:01.297Z,70.36
2022-10-11T11:40:39.680Z,70.28
2022-10-11T11:43:21.331Z,70.05
2022-10-11T11:45:57.894Z,69.97
2022-10-11T11:48:26.544Z,69.26
2022-10-11T11:51:11.637Z,69.24
2022-10-11T11:54:09.356Z,69.28
2022-10-11T11:56:51.024Z,69.10
2022-10-11T11:59:28.821Z,69.71
2022-10-11T12:02:29.027Z,69.43
2022-10-11T12:04:56.320Z,69.05
2022-10-11T12:07:24.319Z,68.70
2022-10-11T12:10:14.681Z,67.92
2022-10-11T12:12:41.571Z,68.17
2022-10-11T12:15:08.283Z,67.47
2022-10-11T12:17:54.191Z,67.33
2022-10-11T12:20:23.927Z,67.70
2022-10-11T12:22:53.377Z,67.35
2022-10-11T12:25:22.837Z,67.15
2022-10-11T12:27:57.029Z,67.23
2022-10-11T12:30:42.623Z,66.87
2022-10-11T12:33:21.898Z,66.62
2022-10-11T12:35:54.973Z,66.35
2022-10-11T12:38:30.740Z,65.54
2022-10-11T12:41:09.411Z,65.20
2022-10-11T12:44:14.927Z,65.13
2022-10-11T12:46:57.919Z,64.94
2022-10-11T12:49:36.511Z,64.87
2022-10-11T12:52:22.044Z,65.12
2022-10-11T12:55:10.560Z,64.92
2022-10-11T12:58:08.785Z,65.03
2022-10-11T13:00:57.026Z,64.75
2022-10-11T13:03:33.449Z,65.13
2022-10-11T13:06:01.974Z,64.53
2022-10-11T13:08:36.847Z,64.54
2022-10-11T13:11:05.839Z,63.86
2022-10-11T13:13:35.204Z,63.82
2022-10-11T13:16:15.053Z,63.71
2022-10-11T13:18:44.097Z,64.18
2022-10-11T13:21:29.932Z,64.25
2022-10-11T13:24:01.856Z,64.09
2022-10-11T13:26:30.119Z,64.08
2022-10-11T13:28:57.494Z,64.38
2022-10-11T13:31:25.331Z,63.91
2022-10-11T13:33:56.305Z,63.91
2022-10-11T13:36:25.662Z,63.76
2022-10-11T13:39:00.294Z,64.24
2022-10-11T13:41:29.053Z,64.00
2022-10-11T13:43:57.173Z,64.18
2022-10-11T13:46:26.255Z,64.04
2022-10-11T13:49:06.864Z,63.84
2022-10-11T13:51:36.048Z,63.83
2022-10-11T13:54:05.721Z,63.61
2022-10-11T13:56:50.913Z,63.89
2022-10-11T13:59:25.468Z,63.75
2022-10-11T14:01:57.868Z,63.84
2022-10-11T14:04:29.496Z,63.92
2022-10-11T14:06:58.414Z,63.89
2022-10-11T14:09:36.456Z,63.61
2022-10-11T14:12:28.241Z,63.51
2022-10-11T14:14:55.133Z,63.15
2022-10-11T14:17:24.796Z,63.15
2022-10-11T14:20:12.015Z,62.88
2022-10-11T14:22:39.254Z,62.64
2022-10-11T14:25:06.353Z,62.53
2022-10-11T14:27:33.357Z,62.61
2022-10-11T14:30:23.979Z,62.45
2022-10-11T14:32:49.119Z,61.89
2022-10-11T14:35:28.071Z,61.87
2022-10-11T14:37:55.210Z,62.21
2022-10-11T14:40:25.141Z,62.32
2022-10-11T14:42:52.215Z,62.72
2022-10-11T14:45:21.150Z,62.23
2022-10-11T14:47:53.594Z,62.22
2022-10-11T14:50:41.362Z,62.45
2022-10-11T14:53:09.284Z,62.20
2022-10-11T14:55:37.048Z,62.01
2022-10-11T14:58:04.859Z,61.90
2022-10-11T15:00:32.365Z,61.80
2022-10-11T15:02:59.294Z,61.56
2022-10-11T15:05:33.503Z,61.42
2022-10-11T15:08:01.769Z,61.62
2022-10-11T15:10:33.057Z,61.24
2022-10-11T15:13:00.487Z,61.65
2022-10-11T15:15:30.432Z,61.62
2022-10-11T15:17:58.909Z,61.50
2022-10-11T15:20:31.871Z,61.58
2022-10-11T15:22:59.451Z,61.57
2022-10-11T15:25:27.095Z,61.65
2022-10-11T15:27:54.022Z,61.31
2022-10-11T15:30:26.890Z,61.26
2022-10-11T15:32:54.759Z,61.41
2022-10-11T15:35:23.025Z,61.09
2022-10-11T15:37:54.344Z,61.36
2022-10-11T15:40:25.184Z,61.20
2022-10-11T15:42:54.131Z,61.50
2022-10-11T15:45:21.677Z,61.70
2022-10-11T15:47:51.819Z,61.95
2022-10-11T15:50:39.660Z,62.01
2022-10-11T15:53:09.148Z,62.17
2022-10-11T15:55:38.576Z,62.39
2022-10-11T15:58:05.959Z,62.43
2022-10-11T16:00:32.834Z,62.74
2022-10-11T16:02:59.991Z,62.92
2022-10-11T16:05:27.476Z,63.16
2022-10-11T16:07:54.454Z,63.71
2022-10-11T16:10:21.534Z,63.86
2022-10-11T16:12:48.852Z,64.45
2022-10-11T16:15:17.288Z,64.54
2022-10-11T16:17:45.306Z,64.84
2022-10-11T16:20:12.292Z,65.53
2022-10-11T16:22:39.177Z,65.91
2022-10-11T16:25:06.208Z,65.91
2022-10-11T16:27:33.412Z,66.33
2022-10-11T16:30:01.270Z,66.30
2022-10-11T16:32:28.345Z,66.62
2022-10-11T16:34:55.220Z,66.76
2022-10-11T16:37:22.102Z,66.90
2022-10-11T16:39:49.130Z,66.80
2022-10-11T16:42:20.517Z,67.05
2022-10-11T16:44:47.600Z,66.93
2022-10-11T16:47:15.852Z,67.26
2022-10-11T16:49:42.731Z,67.65
2022-10-11T16:52:11.045Z,67.54
2022-10-11T16:54:38.352Z,67.52
2022-10-11T16:57:05.263Z,67.62
2022-10-11T16:59:32.157Z,67.69
2022-10-11T17:01:59.156Z,67.61
2022-10-11T17:04:26.049Z,67.67
2022-10-11T17:06:55.070Z,68.04
2022-10-11T17:09:22.157Z,68.40
2022-10-11T17:11:49.052Z,68.37
2022-10-11T17:14:15.943Z,68.70
2022-10-11T17:16:43.219Z,68.69
2022-10-11T17:19:15.514Z,69.11
2022-10-11T17:21:42.505Z,69.09
2022-10-11T17:24:09.470Z,68.98
2022-10-11T17:26:36.346Z,69.03
2022-10-11T17:29:03.294Z,68.90
2022-10-11T17:31:30.396Z,68.85
2022-10-11T17:34:00.692Z,69.36
2022-10-11T17:36:34.433Z,69.20
2022-10-11T17:39:03.595Z,69.28
2022-10-11T17:41:32.270Z,69.56
2022-10-11T17:43:59.758Z,69.70
2022-10-11T17:46:28.163Z,69.70
2022-10-11T17:48:55.702Z,69.91
2022-10-11T17:51:22.644Z,70.02
2022-10-11T17:53:52.377Z,70.29
2022-10-11T17:56:29.486Z,70.58
2022-10-11T17:58:57.890Z,70.52
2022-10-11T18:01:26.614Z,70.57
2022-10-11T18:03:57.744Z,70.84
2022-10-11T18:06:26.719Z,70.80
2022-10-11T18:08:53.670Z,71.23
2022-10-11T18:11:23.635Z,70.77
2022-10-11T18:13:52.506Z,70.92
2022-10-11T18:16:27.055Z,71.02
2022-10-11T18:18:54.795Z,71.01
2022-10-11T18:21:21.728Z,71.13
2022-10-11T18:23:48.682Z,71.34
2022-10-11T18:26:26.701Z,71.14
2022-10-11T18:28:57.175Z,71.15
2022-10-11T18:31:26.329Z,70.98
2022-10-11T18:33:53.844Z,71.09
2022-10-11T18:36:25.435Z,70.96
2022-10-11T18:38:57.492Z,71.04
2022-10-11T18:41:31.633Z,71.13
2022-10-11T18:44:02.757Z,71.32
2022-10-11T18:46:30.378Z,71.58
2022-10-11T18:48:59.768Z,71.62
2022-10-11T18:51:32.841Z,71.65
2022-10-11T18:54:00.506Z,71.49
2022-10-11T18:56:29.500Z,71.78
2022-10-11T18:58:58.244Z,71.93
2022-10-11T19:01:44.903Z,71.86
2022-10-11T19:04:16.010Z,72.07
2022-10-11T19:06:47.777Z,72.14
2022-10-11T19:09:25.793Z,72.08
2022-10-11T19:11:55.569Z,71.91
2022-10-11T19:14:31.552Z,72.10
2022-10-11T19:16:58.621Z,72.22
2022-10-11T19:19:28.977Z,72.49
2022-10-11T19:21:56.055Z,72.39
2022-10-11T19:24:26.629Z,72.49
2022-10-11T19:26:58.413Z,72.57
2022-10-11T19:29:28.947Z,72.79
2022-10-11T19:31:59.028Z,72.64
2022-10-11T19:34:27.741Z,72.73
2022-10-11T19:36:56.554Z,72.77
2022-10-11T19:39:24.679Z,72.96
2022-10-11T19:41:51.560Z,73.09
2022-10-11T19:44:20.896Z,73.13
2022-10-11T19:46:58.310Z,73.18
2022-10-11T19:49:27.279Z,73.06
2022-10-11T19:51:55.425Z,73.32
2022-10-11T19:54:22.731Z,73.40
2022-10-11T19:56:52.707Z,73.30
2022-10-11T19:59:23.293Z,73.58
2022-10-11T20:01:53.509Z,73.73
2022-10-11T20:04:51.079Z,73.66
2022-10-11T20:07:07.440Z,73.61
2022-10-11T20:09:34.382Z,73.59
2022-10-11T20:12:01.253Z,73.58
2022-10-11T20:14:28.132Z,73.52
2022-10-11T20:16:55.019Z,73.37
2022-10-11T20:19:25.047Z,73.27
2022-10-11T20:21:54.809Z,73.57
2022-10-11T20:24:21.728Z,73.49
2022-10-11T20:26:48.632Z,73.58
2022-10-11T20:29:15.498Z,73.54
2022-10-11T20:31:42.925Z,73.81
2022-10-11T20:34:10.056Z,74.11
2022-10-11T20:36:37.034Z,74.09
2022-10-11T20:39:04.809Z,73.91
2022-10-11T20:41:34.263Z,73.82
2022-10-11T20:44:03.680Z,73.89
2022-10-11T20:46:32.864Z,73.90
2022-10-11T20:49:07.833Z,73.98
2022-10-11T20:51:35.898Z,74.07
2022-10-11T20:54:04.244Z,73.95
2022-10-11T20:56:31.164Z,74.07
2022-10-11T20:58:58.339Z,73.88
2022-10-11T21:01:28.288Z,73.80
2022-10-11T21:03:57.297Z,73.98
2022-10-11T21:06:24.193Z,74.02
2022-10-11T21:08:59.035Z,74.16
2022-10-11T21:11:27.149Z,74.24
2022-10-11T21:13:57.917Z,74.43
2022-10-11T21:16:25.139Z,74.47
2022-10-11T21:18:53.435Z,74.75
2022-10-11T21:21:24.063Z,74.59
2022-10-11T21:23:58.344Z,74.69
2022-10-11T21:26:25.330Z,74.81
2022-10-11T21:28:52.350Z,74.81
2022-10-11T21:31:23.584Z,74.80
2022-10-11T21:33:53.238Z,74.93
2022-10-11T21:36:24.730Z,75.12
2022-10-11T21:38:51.931Z,74.98
2022-10-11T21:41:23.212Z,74.56
2022-10-11T21:43:53.416Z,75.17
2022-10-11T21:46:32.572Z,75.23
2022-10-11T21:49:08.860Z,74.93
2022-10-11T21:51:35.760Z,75.15
2022-10-11T21:54:02.721Z,75.18
2022-10-11T21:56:29.900Z,75.32
2022-10-11T21:58:56.960Z,75.16
2022-10-11T22:01:24.040Z,75.13
2022-10-11T22:03:52.605Z,74.99
2022-10-11T22:06:22.380Z,74.86
2022-10-11T22:08:50.114Z,74.88
2022-10-11T22:11:17.037Z,74.83
2022-10-11T22:13:43.917Z,75.04
2022-10-11T22:16:12.328Z,75.00
2022-10-11T22:18:39.463Z,75.15
2022-10-11T22:21:17.832Z,75.10
2022-10-11T22:23:46.584Z,75.11
2022-10-11T22:26:15.917Z,75.23
2022-10-11T22:28:43.019Z,75.09
2022-10-11T22:31:10.320Z,75.34
2022-10-11T22:33:37.362Z,75.48
2022-10-11T22:36:05.904Z,75.46
2022-10-11T22:38:32.830Z,75.33
2022-10-11T22:40:59.797Z,75.49
2022-10-11T22:43:26.676Z,75.41
2022-10-11T22:45:53.559Z,75.63
2022-10-11T22:48:23.189Z,75.72
2022-10-11T22:50:50.147Z,75.72
2022-10-11T22:53:17.761Z,75.69
2022-10-11T22:55:44.637Z,75.54
2022-10-11T22:58:14.199Z,75.41
2022-10-11T23:00:41.243Z,75.62
2022-10-11T23:03:08.206Z,75.85
2022-10-11T23:05:35.461Z,75.74
2022-10-11T23:08:02.345Z,75.69
2022-10-11T23:10:29.213Z,75.91
2022-10-11T23:12:56.104Z,75.84
2022-10-11T23:15:22.977Z,75.97
2022-10-11T23:17:52.849Z,75.97
2022-10-11T23:20:21.896Z,76.14
2022-10-11T23:22:48.803Z,76.16
2022-10-11T23:25:15.742Z,76.06
2022-10-11T23:27:42.628Z,75.88
2022-10-11T23:30:10.326Z,75.99
2022-10-11T23:32:37.206Z,75.97
2022-10-11T23:35:04.284Z,75.91
2022-10-11T23:37:31.160Z,76.09
2022-10-11T23:39:58.034Z,76.00
2022-10-11T23:42:24.923Z,76.13
2022-10-11T23:44:52.969Z,76.22
2022-10-11T23:47:22.564Z,76.26
2022-10-11T23:49:52.769Z,76.24
2022-10-11T23:52:22.409Z,76.29
2022-10-11T23:54:52.413Z,76.54
2022-10-11T23:57:21.892Z,76.61
2022-10-11T23:59:48.786Z,76.70
